Time;durP1;ratioP1;P1;durP2;ratioP2;P2;SDS_P1;SDS_P2;PMS_P1;PMS_P2;Temp;Humidity;BMP_temperature;BMP_pressure;BME280_temperature;BME280_humidity;BME280_pressure;Samples;Min_cycle;Max_cycle;Signal;HPM_P1;HPM_P2
2023/01/07 00:04:25;;;;;;;14.90;8.20;;;;;;;5.93;100.00;99038.73;214292;1313;22544;-76
2023/01/07 00:09:27;;;;;;;17.60;9.40;;;;;;;5.91;100.00;99042.38;214175;1311;22514;-75
2023/01/07 00:14:32;;;;;;;14.80;8.50;;;;;;;5.89;100.00;99038.41;214253;1296;22522;-75
2023/01/07 00:19:33;;;;;;;23.50;10.50;;;;;;;5.85;100.00;99040.23;214017;1310;23338;-75
2023/01/07 00:24:35;;;;;;;17.30;8.90;;;;;;;5.84;100.00;99043.36;213965;1311;22457;-77
2023/01/07 00:29:37;;;;;;;21.80;10.30;;;;;;;5.81;100.00;99040.94;214096;1312;22471;-75
2023/01/07 00:34:39;;;;;;;22.10;9.90;;;;;;;5.79;100.00;99042.30;214230;1304;22474;-76
2023/01/07 00:39:41;;;;;;;24.40;11.60;;;;;;;5.76;100.00;99048.39;214237;1313;22484;-76
2023/01/07 00:44:42;;;;;;;26.70;11.20;;;;;;;5.76;100.00;99050.77;214083;1311;24468;-76
2023/01/07 00:49:45;;;;;;;27.90;11.20;;;;;;;5.78;100.00;99050.00;214062;1312;24716;-76
2023/01/07 00:54:47;;;;;;;25.50;12.20;;;;;;;5.83;100.00;99050.11;214239;1301;22531;-75
2023/01/07 00:59:49;;;;;;;31.80;14.40;;;;;;;5.90;100.00;99059.65;214051;1312;25444;-76
2023/01/07 01:04:51;;;;;;;26.40;12.40;;;;;;;5.93;100.00;99063.27;213962;1304;22495;-76
2023/01/07 01:09:53;;;;;;;22.60;10.70;;;;;;;5.92;100.00;99070.56;214070;1309;22618;-75
2023/01/07 01:14:55;;;;;;;24.30;10.90;;;;;;;5.86;100.00;99073.11;214072;1302;22482;-75
2023/01/07 01:19:57;;;;;;;22.00;10.10;;;;;;;5.78;100.00;99080.31;213762;1292;23220;-75
2023/01/07 01:24:59;;;;;;;19.40;10.10;;;;;;;5.72;100.00;99080.13;214169;1301;22513;-76
2023/01/07 01:30:01;;;;;;;23.20;12.10;;;;;;;5.63;100.00;99079.98;213969;1312;22502;-76
2023/01/07 01:35:04;;;;;;;31.30;13.30;;;;;;;5.54;100.00;99076.69;214191;1313;26611;-77
2023/01/07 01:40:06;;;;;;;17.70;8.50;;;;;;;5.47;100.00;99081.91;213956;1313;22677;-74
2023/01/07 01:45:10;;;;;;;27.80;11.10;;;;;;;5.42;100.00;99081.54;214229;1310;22471;-76
2023/01/07 01:50:25;;;;;;;20.50;8.60;;;;;;;5.35;100.00;99080.17;214295;1309;22515;-76
2023/01/07 01:55:34;;;;;;;26.40;10.80;;;;;;;5.27;100.00;99077.64;214243;1310;23207;-76
2023/01/07 02:00:37;;;;;;;24.60;10.50;;;;;;;5.20;100.00;99073.28;214281;1308;22613;-76
2023/01/07 02:05:41;;;;;;;29.00;12.20;;;;;;;5.13;100.00;99074.36;213867;1310;22514;-77
2023/01/07 02:10:43;;;;;;;28.90;12.30;;;;;;;5.07;100.00;99074.80;213937;1310;22744;-76
2023/01/07 02:16:10;;;;;;;31.90;13.00;;;;;;;5.03;100.00;99067.33;213963;1310;25374;-75
2023/01/07 02:21:33;;;;;;;34.00;13.80;;;;;;;4.97;100.00;99067.35;213990;1310;22458;-76
2023/01/07 02:27:02;;;;;;;34.40;14.20;;;;;;;4.90;100.00;99068.52;214054;1310;22519;-77
2023/01/07 02:33:13;;;;;;;28.00;12.10;;;;;;;4.86;100.00;99067.02;214281;1310;23058;-75
2023/01/07 02:38:43;;;;;;;31.00;12.60;;;;;;;4.74;100.00;99073.23;212669;1319;24582;-74
2023/01/07 02:44:01;;;;;;;30.30;12.90;;;;;;;4.65;100.00;99070.15;214039;1310;22472;-76
2023/01/07 02:49:08;;;;;;;32.10;13.60;;;;;;;4.53;100.00;99064.30;214139;1311;23315;-76
2023/01/07 02:54:23;;;;;;;39.00;14.90;;;;;;;4.42;100.00;99063.33;214111;1310;22550;-75
2023/01/07 03:00:02;;;;;;;36.80;14.50;;;;;;;4.38;100.00;99064.52;214268;1310;22644;-75
2023/01/07 03:05:32;;;;;;;39.50;15.80;;;;;;;4.34;100.00;99070.23;213829;1310;22496;-76
2023/01/07 03:10:43;;;;;;;33.90;13.30;;;;;;;4.28;100.00;99072.70;214305;1310;22640;-75
2023/01/07 03:15:59;;;;;;;38.30;15.20;;;;;;;4.18;100.00;99069.05;214385;1310;25376;-78
2023/01/07 03:21:05;;;;;;;44.60;16.70;;;;;;;4.09;100.00;99061.29;214170;1310;22527;-76
2023/01/07 03:26:08;;;;;;;42.90;17.20;;;;;;;4.01;100.00;99058.16;214182;1310;25127;-76
2023/01/07 03:31:14;;;;;;;46.80;19.10;;;;;;;3.93;100.00;99061.52;214291;1307;22522;-75
2023/01/07 03:36:22;;;;;;;53.40;19.90;;;;;;;3.83;100.00;99067.40;214459;1310;22617;-75
2023/01/07 03:46:46;;;;;;;61.10;24.80;;;;;;;3.71;100.00;99064.19;214033;1310;25261;-75
2023/01/07 03:51:49;;;;;;;58.10;21.80;;;;;;;3.65;100.00;99072.89;213987;1310;24289;-75
2023/01/07 03:56:51;;;;;;;46.60;18.60;;;;;;;3.60;100.00;99071.98;214097;1297;22471;-75
2023/01/07 04:01:52;;;;;;;56.90;20.60;;;;;;;3.58;100.00;99073.82;213979;1310;23776;-74
2023/01/07 04:06:55;;;;;;;57.40;21.20;;;;;;;3.57;100.00;99077.30;214245;1310;22550;-75
2023/01/07 04:11:57;;;;;;;55.80;21.60;;;;;;;3.59;100.00;99075.52;214118;1309;23670;-75
2023/01/07 04:16:59;;;;;;;61.40;24.10;;;;;;;3.62;100.00;99074.73;214061;1300;22542;-75
2023/01/07 04:22:01;;;;;;;65.00;24.90;;;;;;;3.66;100.00;99063.20;214172;1310;26376;-75
2023/01/07 04:27:04;;;;;;;71.10;27.30;;;;;;;3.67;100.00;99062.75;214099;1310;22478;-76
2023/01/07 04:32:06;;;;;;;62.00;23.20;;;;;;;3.70;100.00;99064.02;213980;1304;24228;-78
2023/01/07 04:37:08;;;;;;;144.80;61.10;;;;;;;3.70;100.00;99067.48;214007;1310;22477;-76
2023/01/07 04:42:10;;;;;;;89.60;36.00;;;;;;;3.69;100.00;99071.73;214085;1310;22466;-75
2023/01/07 04:47:12;;;;;;;92.50;33.00;;;;;;;3.67;100.00;99070.80;214165;1310;25274;-76
2023/01/07 04:52:14;;;;;;;95.10;32.50;;;;;;;3.65;100.00;99080.05;214219;1310;25264;-75
2023/01/07 04:57:17;;;;;;;100.10;35.80;;;;;;;3.67;100.00;99076.30;214091;1310;25382;-75
2023/01/07 05:02:19;;;;;;;115.40;42.10;;;;;;;3.69;100.00;99084.41;214031;1310;24456;-76
2023/01/07 05:07:21;;;;;;;134.80;46.50;;;;;;;3.75;100.00;99086.33;214162;1310;25391;-76
2023/01/07 05:12:23;;;;;;;136.00;43.90;;;;;;;3.83;100.00;99084.78;214100;1310;23299;-76
2023/01/07 05:17:27;;;;;;;141.40;46.30;;;;;;;3.93;100.00;99087.88;213974;1310;25366;-76
2023/01/07 05:22:31;;;;;;;142.90;49.30;;;;;;;4.03;100.00;99092.20;214026;1310;24115;-76
2023/01/07 05:27:33;;;;;;;134.40;48.30;;;;;;;4.12;100.00;99089.13;213982;1310;23332;-75
2023/01/07 05:32:36;;;;;;;153.40;50.20;;;;;;;4.22;100.00;99086.17;214078;1310;22609;-75
2023/01/07 05:37:38;;;;;;;146.40;51.20;;;;;;;4.30;100.00;99085.09;214095;1310;22470;-76
2023/01/07 05:42:42;;;;;;;153.90;52.30;;;;;;;4.36;100.00;99084.98;214048;1310;25224;-77
2023/01/07 05:47:44;;;;;;;140.30;48.40;;;;;;;4.39;100.00;99084.98;214038;1306;25491;-75
2023/01/07 05:52:46;;;;;;;136.30;47.80;;;;;;;4.41;100.00;99083.98;214155;1310;26545;-75
2023/01/07 05:57:48;;;;;;;128.70;46.10;;;;;;;4.38;100.00;99084.69;214123;1310;22634;-76
2023/01/07 06:02:50;;;;;;;126.60;46.80;;;;;;;4.32;100.00;99079.88;214070;1310;26483;-76
2023/01/07 06:07:51;;;;;;;164.80;60.30;;;;;;;4.31;100.00;99081.87;214032;1304;22505;-75
2023/01/07 06:12:53;;;;;;;167.60;58.70;;;;;;;4.34;100.00;99082.65;214254;1310;23119;-75
2023/01/07 06:17:55;;;;;;;174.50;63.80;;;;;;;4.37;100.00;99083.50;214205;1297;22602;-76
2023/01/07 06:22:56;;;;;;;158.80;57.50;;;;;;;4.39;100.00;99076.94;214065;1310;25289;-75
2023/01/07 06:27:58;;;;;;;155.10;54.90;;;;;;;4.41;100.00;99084.68;214317;1307;23445;-75
2023/01/07 06:33:00;;;;;;;155.00;51.70;;;;;;;4.40;100.00;99096.02;214084;1310;22489;-75
2023/01/07 06:38:02;;;;;;;158.80;54.50;;;;;;;4.39;100.00;99099.63;214290;1310;24285;-76
2023/01/07 06:43:03;;;;;;;156.70;51.90;;;;;;;4.41;100.00;99094.24;214163;1310;22575;-76
2023/01/07 06:48:05;;;;;;;161.10;57.40;;;;;;;4.42;100.00;99099.18;214328;1310;24279;-74
2023/01/07 06:53:07;;;;;;;184.20;63.60;;;;;;;4.41;100.00;99101.08;214187;1310;22594;-75
2023/01/07 06:58:09;;;;;;;192.80;67.10;;;;;;;4.38;100.00;99102.41;214248;1310;24471;-76
2023/01/07 07:03:10;;;;;;;222.60;74.70;;;;;;;4.34;100.00;99104.99;214033;1310;22606;-75
2023/01/07 07:08:12;;;;;;;267.00;90.30;;;;;;;4.29;100.00;99105.33;214116;1310;22493;-75
2023/01/07 07:13:14;;;;;;;319.30;103.70;;;;;;;4.25;100.00;99104.63;214268;1310;22476;-76
2023/01/07 07:18:17;;;;;;;390.20;129.30;;;;;;;4.23;100.00;99111.28;214099;1311;22468;-76
2023/01/07 07:23:18;;;;;;;400.20;134.60;;;;;;;4.24;100.00;99111.38;214254;1310;22917;-75
2023/01/07 07:28:20;;;;;;;416.30;136.40;;;;;;;4.24;100.00;99116.70;214214;1310;22465;-76
2023/01/07 07:33:22;;;;;;;404.10;137.00;;;;;;;4.22;100.00;99119.95;214093;1310;25375;-75
2023/01/07 07:38:23;;;;;;;400.20;129.60;;;;;;;4.22;100.00;99119.31;213929;1310;24373;-74
2023/01/07 07:43:25;;;;;;;386.70;121.40;;;;;;;4.23;100.00;99118.42;214100;1310;24363;-75
2023/01/07 07:48:27;;;;;;;386.80;125.20;;;;;;;4.27;100.00;99114.80;214073;1306;22487;-75
2023/01/07 07:53:29;;;;;;;377.20;119.90;;;;;;;4.34;100.00;99119.32;214299;1310;22545;-75
2023/01/07 07:58:31;;;;;;;401.70;130.10;;;;;;;4.53;100.00;99114.81;214027;1310;24363;-76
2023/01/07 08:03:33;;;;;;;503.80;161.60;;;;;;;4.76;100.00;99104.71;214198;1310;25349;-77
2023/01/07 08:08:35;;;;;;;435.80;143.00;;;;;;;4.96;100.00;99102.48;213972;1306;162558;-76
2023/01/07 08:13:36;;;;;;;358.50;112.20;;;;;;;5.26;100.00;99101.89;214276;1310;24399;-76
2023/01/07 08:18:38;;;;;;;196.10;72.50;;;;;;;5.44;100.00;99104.41;214035;1310;24342;-76
2023/01/07 08:23:40;;;;;;;166.70;59.30;;;;;;;5.57;100.00;99103.18;213993;1310;24430;-76
2023/01/07 08:28:42;;;;;;;183.50;66.50;;;;;;;5.70;100.00;99098.50;214304;1295;24283;-75
2023/01/07 08:33:47;;;;;;;232.40;84.50;;;;;;;5.77;100.00;99100.44;214079;1310;23215;-76
2023/01/07 08:38:53;;;;;;;154.20;58.10;;;;;;;5.87;100.00;99100.66;214046;1310;25276;-75
2023/01/07 08:43:55;;;;;;;140.10;55.10;;;;;;;5.96;100.00;99093.58;214134;1310;22706;-76
2023/01/07 08:48:57;;;;;;;133.10;57.10;;;;;;;6.06;100.00;99092.70;214189;1310;22495;-75
2023/01/07 08:53:59;;;;;;;118.20;49.70;;;;;;;6.24;100.00;99091.55;214225;1310;22730;-76
2023/01/07 08:59:01;;;;;;;136.80;55.40;;;;;;;6.28;100.00;99098.66;214069;1295;22526;-77
2023/01/07 09:04:03;;;;;;;136.40;55.90;;;;;;;6.32;100.00;99099.77;213985;1310;22553;-75
2023/01/07 09:09:05;;;;;;;157.90;62.60;;;;;;;6.48;100.00;99099.70;214170;1310;25493;-77
2023/01/07 09:14:07;;;;;;;179.30;68.70;;;;;;;6.69;100.00;99097.90;214099;1310;22461;-78
2023/01/07 09:19:08;;;;;;;136.30;56.80;;;;;;;6.84;100.00;99102.32;214015;1310;22610;-76
2023/01/07 09:24:10;;;;;;;162.60;61.90;;;;;;;6.94;100.00;99095.09;214272;1310;25436;-75
2023/01/07 09:29:12;;;;;;;129.90;53.00;;;;;;;7.08;100.00;99096.56;214121;1304;22486;-75
2023/01/07 09:34:14;;;;;;;112.80;46.60;;;;;;;7.22;100.00;99094.09;214272;1310;23116;-75
2023/01/07 09:39:15;;;;;;;112.40;47.40;;;;;;;7.30;100.00;99093.07;214100;1302;24437;-75
2023/01/07 09:44:43;;;;;;;108.80;48.80;;;;;;;7.43;100.00;99084.39;214090;1310;22505;-77
2023/01/07 09:49:52;;;;;;;103.00;46.20;;;;;;;7.56;100.00;99072.81;214026;1310;22472;-75
2023/01/07 09:55:09;;;;;;;102.50;46.40;;;;;;;7.68;100.00;99069.93;214110;1310;24254;-75
2023/01/07 10:00:17;;;;;;;116.70;47.80;;;;;;;7.85;100.00;99070.14;214087;1310;22602;-76
2023/01/07 10:05:33;;;;;;;75.00;34.80;;;;;;;8.02;100.00;99070.88;214095;1310;22466;-74
2023/01/07 10:10:48;;;;;;;96.90;41.30;;;;;;;8.12;100.00;99065.99;214082;1310;22498;-76
2023/01/07 10:15:57;;;;;;;86.40;38.20;;;;;;;8.28;100.00;99051.96;214219;1298;22514;-74
2023/01/07 10:21:05;;;;;;;72.40;34.20;;;;;;;8.44;100.00;99049.30;214014;1310;22611;-75
2023/01/07 10:26:18;;;;;;;70.30;31.90;;;;;;;8.59;100.00;99054.02;214113;1296;22460;-75
2023/01/07 10:31:22;;;;;;;43.00;24.10;;;;;;;8.66;100.00;99056.42;214076;1310;22505;-76
2023/01/07 10:36:27;;;;;;;48.30;26.30;;;;;;;8.72;100.00;99044.19;213987;1310;22608;-76
2023/01/07 10:41:44;;;;;;;64.70;32.60;;;;;;;8.79;100.00;99045.71;214119;1310;25208;-77
2023/01/07 10:46:58;;;;;;;47.60;23.60;;;;;;;8.83;100.00;99038.98;213823;1310;23286;-76
2023/01/07 10:52:27;;;;;;;43.50;23.10;;;;;;;8.74;100.00;99041.52;214212;1310;22463;-76
2023/01/07 10:57:30;;;;;;;28.00;16.30;;;;;;;8.68;100.00;99048.34;213930;1310;25108;-78
2023/01/07 11:02:32;;;;;;;34.70;17.20;;;;;;;8.77;100.00;99040.42;213967;1310;23235;-76
2023/01/07 11:07:47;;;;;;;32.70;17.60;;;;;;;8.86;100.00;99038.71;214213;1310;22465;-76
2023/01/07 11:12:57;;;;;;;26.80;15.40;;;;;;;8.94;100.00;99031.95;214075;1301;22583;-76
2023/01/07 11:18:05;;;;;;;;;;;;;;;9.00;100.00;99028.58;213793;1310;24512;-75
2023/01/07 11:23:37;;;;;;;19.00;12.80;;;;;;;9.11;100.00;99023.04;213920;1310;22546;-77
2023/01/07 11:28:46;;;;;;;23.50;13.80;;;;;;;9.11;100.00;99021.91;214133;1293;22653;-75
2023/01/07 11:33:51;;;;;;;16.80;11.40;;;;;;;8.99;100.00;99008.82;214019;1304;22486;-77
2023/01/07 11:39:22;;;;;;;19.10;11.10;;;;;;;8.93;99.93;99002.41;213888;1310;23825;-75
2023/01/07 11:44:24;;;;;;;13.40;9.50;;;;;;;8.93;100.00;98994.41;214038;1310;24770;-75
2023/01/07 11:49:29;;;;;;;13.10;7.80;;;;;;;9.00;100.00;98989.77;214150;1307;24260;-76
2023/01/07 11:54:31;;;;;;;13.20;8.20;;;;;;;9.13;100.00;98985.35;214164;1310;24354;-75
2023/01/07 11:59:33;;;;;;;23.70;13.30;;;;;;;9.22;99.90;98980.35;214156;1310;22485;-75
2023/01/07 12:04:36;;;;;;;20.70;11.30;;;;;;;9.28;99.63;98977.42;213996;1310;24532;-76
2023/01/07 12:09:40;;;;;;;20.10;12.30;;;;;;;9.29;99.25;98967.21;214004;1310;22481;-76
2023/01/07 12:14:46;;;;;;;22.90;13.40;;;;;;;9.26;98.75;98963.38;214136;1309;22521;-75
2023/01/07 12:20:06;;;;;;;27.10;14.00;;;;;;;9.25;99.02;98961.52;214123;1310;22961;-76
2023/01/07 12:25:23;;;;;;;24.70;12.10;;;;;;;9.26;98.42;98958.78;214196;1310;25435;-76
2023/01/07 12:30:34;;;;;;;16.60;9.60;;;;;;;9.20;98.26;98951.86;214207;1310;22505;-75
2023/01/07 12:35:41;;;;;;;17.80;9.60;;;;;;;9.07;97.69;98949.25;214172;1310;25450;-77
2023/01/07 12:40:50;;;;;;;20.90;10.80;;;;;;;8.92;97.09;98945.19;214150;1310;25305;-74
2023/01/07 12:45:59;;;;;;;16.00;8.60;;;;;;;8.90;97.83;98939.70;214268;1310;22525;-75
2023/01/07 12:51:09;;;;;;;23.80;11.80;;;;;;;8.93;97.71;98938.40;214148;1304;22490;-76
2023/01/07 12:56:19;;;;;;;14.90;8.80;;;;;;;8.98;97.94;98933.63;214190;1310;24566;-77
2023/01/07 13:01:29;;;;;;;20.40;10.60;;;;;;;9.04;97.92;98932.48;214077;1310;22475;-76
2023/01/07 13:06:43;;;;;;;24.50;13.50;;;;;;;9.09;97.94;98929.61;214222;1290;22456;-76
2023/01/07 13:17:35;;;;;;;;;;;;;;;8.92;97.19;98925.57;214040;1309;22634;-75
2023/01/07 13:22:45;;;;;;;16.40;9.40;;;;;;;8.86;97.25;98923.04;214329;1310;22732;-76
2023/01/07 13:27:53;;;;;;;;;;;;;;;8.85;97.18;98915.45;214159;1310;22471;-76
2023/01/07 13:33:02;;;;;;;32.00;14.60;;;;;;;8.82;97.44;98911.88;214269;1310;22757;-75
2023/01/07 13:38:32;;;;;;;34.20;16.00;;;;;;;8.80;97.48;98912.33;213999;1310;22808;-75
2023/01/07 13:43:54;;;;;;;29.20;15.40;;;;;;;8.78;97.41;98910.93;213836;1310;22464;-76
2023/01/07 13:48:56;;;;;;;36.60;17.30;;;;;;;8.74;97.28;98914.54;214189;1310;22500;-75
2023/01/07 13:53:58;;;;;;;38.80;16.80;;;;;;;8.74;97.27;98915.17;214098;1310;25218;-76
2023/01/07 13:59:00;;;;;;;40.80;18.70;;;;;;;8.78;97.20;98909.34;213899;1310;24864;-75
2023/01/07 14:04:02;;;;;;;39.10;18.70;;;;;;;8.79;97.20;98901.55;214102;1310;23107;-75
2023/01/07 14:09:04;;;;;;;37.80;18.40;;;;;;;8.79;97.45;98899.78;214239;1306;22481;-76
2023/01/07 14:14:28;;;;;;;42.80;20.50;;;;;;;8.78;97.46;98902.98;214039;1310;22474;-76
2023/01/07 14:19:45;;;;;;;45.90;21.80;;;;;;;8.74;97.30;98906.78;214145;1300;22471;-76
2023/01/07 14:25:06;;;;;;;46.60;23.80;;;;;;;8.68;97.33;98904.51;214285;1310;25322;-76
2023/01/07 14:30:27;;;;;;;53.40;25.10;;;;;;;8.59;97.37;98902.13;214145;1310;24363;-76
2023/01/07 14:35:33;;;;;;;52.40;24.00;;;;;;;8.47;97.29;98903.06;214090;1310;23024;-76
2023/01/07 14:40:36;;;;;;;50.70;24.90;;;;;;;8.31;97.29;98900.79;214045;1307;22726;-74
2023/01/07 14:45:37;;;;;;;50.40;24.90;;;;;;;8.16;97.40;98903.73;214173;1298;22480;-78
2023/01/07 14:50:44;;;;;;;50.70;23.30;;;;;;;8.00;97.46;98899.05;214119;1310;22457;-75
2023/01/07 14:56:16;;;;;;;53.40;23.70;;;;;;;7.83;97.26;98884.34;214072;1310;22537;-75
2023/01/07 15:01:35;;;;;;;66.70;28.80;;;;;;;7.64;97.44;98876.88;214218;1295;22607;-76
2023/01/07 15:06:39;;;;;;;70.80;28.70;;;;;;;7.44;97.54;98873.66;214304;1307;24263;-75
2023/01/07 15:17:05;;;;;;;58.80;26.10;;;;;;;7.06;97.58;98865.34;214148;1312;24121;-76
2023/01/07 15:22:27;;;;;;;84.90;41.50;;;;;;;6.88;97.69;98857.66;213904;1311;22455;-76
2023/01/07 15:27:36;;;;;;;55.20;23.70;;;;;;;6.70;97.69;98855.63;214034;1312;23207;-76
2023/01/07 15:32:56;;;;;;;65.00;26.70;;;;;;;6.54;97.87;98855.66;214129;1313;22643;-76
2023/01/07 15:38:01;;;;;;;106.00;44.40;;;;;;;6.39;98.09;98861.55;214065;1311;22484;-75
2023/01/07 15:43:04;;;;;;;149.20;60.80;;;;;;;6.24;98.33;98861.11;214119;1304;22519;-76
2023/01/07 15:48:11;;;;;;;140.30;62.30;;;;;;;6.09;98.24;98859.33;214111;1313;24086;-76
2023/01/07 15:53:12;;;;;;;123.60;54.00;;;;;;;5.96;98.23;98857.14;213937;1313;24242;-75
2023/01/07 15:58:19;;;;;;;94.90;43.70;;;;;;;5.83;98.46;98856.67;214111;1298;22473;-75
2023/01/07 16:03:21;;;;;;;95.00;40.10;;;;;;;5.70;98.69;98853.16;213875;1313;23893;-75
2023/01/07 16:08:28;;;;;;;90.90;38.20;;;;;;;5.60;98.86;98852.44;214008;1311;22476;-75
2023/01/07 16:13:31;;;;;;;93.90;37.50;;;;;;;5.48;98.80;98856.44;214161;1312;24230;-75
2023/01/07 16:18:33;;;;;;;101.60;41.80;;;;;;;5.38;99.23;98852.26;214022;1312;22911;-76
2023/01/07 16:23:36;;;;;;;90.90;40.60;;;;;;;5.27;99.23;98854.98;214135;1313;22511;-75
2023/01/07 16:28:47;;;;;;;101.90;42.50;;;;;;;5.15;99.32;98852.83;213949;1313;22524;-74
2023/01/07 16:33:52;;;;;;;116.90;48.80;;;;;;;5.05;99.54;98855.02;214088;1312;24331;-75
2023/01/07 16:38:59;;;;;;;122.50;53.10;;;;;;;4.94;99.73;98847.95;214136;1313;25240;-75
2023/01/07 16:44:01;;;;;;;141.60;59.40;;;;;;;4.85;99.56;98844.04;214033;1312;23667;-75
2023/01/07 16:49:10;;;;;;;139.70;58.50;;;;;;;4.76;99.71;98837.19;213949;1304;22522;-75
2023/01/07 16:54:24;;;;;;;133.70;56.00;;;;;;;4.67;99.84;98831.84;214032;1308;23018;-75
2023/01/07 16:59:29;;;;;;;147.50;60.00;;;;;;;4.62;100.00;98824.66;213996;1312;24379;-76
2023/01/07 17:04:32;;;;;;;134.80;56.00;;;;;;;4.56;99.90;98819.02;214059;1311;22524;-75
2023/01/07 17:09:37;;;;;;;152.20;61.30;;;;;;;4.49;99.97;98814.92;213937;1312;22495;-76
2023/01/07 17:14:44;;;;;;;168.30;70.20;;;;;;;4.44;100.00;98811.30;214141;1311;23205;-74
2023/01/07 17:20:22;;;;;;;162.20;63.70;;;;;;;4.37;100.00;98812.80;214475;1311;25283;-77
2023/01/07 17:25:27;;;;;;;148.00;57.90;;;;;;;4.25;100.00;98817.52;213181;1310;22481;-75
2023/01/07 17:30:36;;;;;;;154.10;62.70;;;;;;;4.11;99.98;98818.10;214008;1310;23744;-75
2023/01/07 17:35:43;;;;;;;158.20;60.30;;;;;;;4.00;100.00;98814.34;214159;1313;24548;-75
2023/01/07 17:40:45;;;;;;;149.40;60.70;;;;;;;3.90;100.00;98810.60;214131;1311;22498;-76
2023/01/07 17:45:47;;;;;;;143.80;58.80;;;;;;;3.87;100.00;98810.13;214095;1313;24316;-75
2023/01/07 17:50:49;;;;;;;142.50;58.60;;;;;;;3.83;100.00;98803.28;214202;1313;25254;-75
2023/01/07 17:55:51;;;;;;;147.50;63.20;;;;;;;3.77;100.00;98800.65;214112;1312;24384;-75
2023/01/07 18:00:55;;;;;;;160.20;65.30;;;;;;;3.73;100.00;98801.50;214125;1282;22522;-76
2023/01/07 18:05:57;;;;;;;165.60;65.40;;;;;;;3.70;100.00;98805.69;214228;1313;25328;-75
2023/01/07 18:16:19;;;;;;;179.80;74.20;;;;;;;3.63;100.00;98803.52;213942;1312;22584;-75
2023/01/07 18:21:23;;;;;;;175.70;74.20;;;;;;;3.59;100.00;98798.23;214208;1312;24110;-75
2023/01/07 18:26:26;;;;;;;168.50;69.80;;;;;;;3.54;100.00;98803.15;214140;1304;23818;-75
2023/01/07 18:31:27;;;;;;;168.90;65.80;;;;;;;3.47;100.00;98803.23;214164;1313;22596;-75
2023/01/07 18:36:29;;;;;;;143.90;58.20;;;;;;;3.40;100.00;98805.92;213889;1310;23897;-75
2023/01/07 18:41:32;;;;;;;128.30;50.20;;;;;;;3.29;100.00;98808.34;213969;1311;22512;-77
2023/01/07 18:46:34;;;;;;;121.80;50.10;;;;;;;3.17;100.00;98805.42;214017;1312;25675;-76
2023/01/07 18:51:36;;;;;;;93.50;38.40;;;;;;;3.05;100.00;98805.96;214164;1303;22521;-75
2023/01/07 18:56:38;;;;;;;132.60;54.30;;;;;;;2.96;100.00;98803.11;214075;1310;24129;-75
2023/01/07 19:01:39;;;;;;;209.80;79.90;;;;;;;2.88;100.00;98800.38;214111;1311;22530;-76
2023/01/07 19:06:41;;;;;;;226.00;89.30;;;;;;;2.89;100.00;98798.48;214091;1311;25094;-76
2023/01/07 19:11:43;;;;;;;192.20;71.80;;;;;;;2.88;100.00;98796.84;214046;1312;26363;-75
2023/01/07 19:16:45;;;;;;;221.90;85.60;;;;;;;2.82;100.00;98796.03;213957;1313;25389;-75
2023/01/07 19:21:48;;;;;;;163.20;67.30;;;;;;;2.72;100.00;98794.38;214136;1313;22474;-75
2023/01/07 19:26:50;;;;;;;171.50;66.40;;;;;;;2.57;100.00;98791.75;214032;1312;22698;-75
2023/01/07 19:31:52;;;;;;;146.20;56.30;;;;;;;2.44;100.00;98792.78;214170;1313;25225;-75
2023/01/07 19:36:54;;;;;;;186.40;72.00;;;;;;;2.34;100.00;98788.14;214011;1307;22472;-76
2023/01/07 19:41:56;;;;;;;184.50;70.80;;;;;;;2.26;100.00;98788.83;214110;1312;22528;-76
2023/01/07 19:46:57;;;;;;;162.60;60.60;;;;;;;2.22;100.00;98789.03;214196;1310;22904;-76
2023/01/07 19:51:59;;;;;;;155.00;59.40;;;;;;;2.18;100.00;98786.06;214065;1311;22454;-77
2023/01/07 19:57:01;;;;;;;146.70;56.80;;;;;;;2.13;100.00;98781.69;214122;1313;22465;-75
2023/01/07 20:02:03;;;;;;;167.50;58.90;;;;;;;2.09;100.00;98776.68;214217;1311;25254;-76
2023/01/07 20:07:05;;;;;;;172.80;65.00;;;;;;;2.04;100.00;98769.77;213972;1312;154055;-75
2023/01/07 20:12:07;;;;;;;151.70;56.80;;;;;;;2.00;100.00;98765.71;214052;1308;22468;-75
2023/01/07 20:17:10;;;;;;;171.60;62.50;;;;;;;1.94;100.00;98767.19;214037;1312;22477;-75
2023/01/07 20:22:11;;;;;;;164.60;63.40;;;;;;;1.87;100.00;98761.27;214083;1312;22592;-76
2023/01/07 20:27:13;;;;;;;197.00;74.30;;;;;;;1.82;100.00;98756.52;214186;1311;25435;-75
2023/01/07 20:32:15;;;;;;;171.90;67.10;;;;;;;1.80;100.00;98746.77;213827;1313;22480;-75
2023/01/07 20:37:20;;;;;;;177.20;65.10;;;;;;;1.85;100.00;98736.99;214057;1306;24312;-76
2023/01/07 20:42:22;;;;;;;150.70;61.50;;;;;;;1.92;100.00;98727.52;214073;1312;24390;-76
2023/01/07 20:47:24;;;;;;;196.20;76.10;;;;;;;1.99;100.00;98725.39;214138;1312;25313;-76
2023/01/07 20:52:26;;;;;;;207.80;75.60;;;;;;;2.11;100.00;98727.85;214096;1311;22647;-76
2023/01/07 20:57:29;;;;;;;224.70;80.40;;;;;;;2.23;100.00;98725.52;214018;1312;23166;-73
2023/01/07 21:02:31;;;;;;;201.20;73.90;;;;;;;2.36;100.00;98720.44;213964;1311;22476;-75
2023/01/07 21:07:33;;;;;;;217.60;82.10;;;;;;;2.49;100.00;98717.34;214119;1310;23913;-75
2023/01/07 21:12:35;;;;;;;220.60;78.50;;;;;;;2.62;100.00;98715.90;214122;1312;24250;-75
2023/01/07 21:17:38;;;;;;;211.70;81.40;;;;;;;2.74;100.00;98715.38;214070;1312;23127;-76
2023/01/07 21:22:40;;;;;;;231.50;87.20;;;;;;;2.86;100.00;98714.50;214037;1304;22601;-75
2023/01/07 21:27:42;;;;;;;214.80;83.50;;;;;;;2.94;100.00;98702.84;214228;1310;23084;-75
2023/01/07 21:32:44;;;;;;;234.60;89.10;;;;;;;3.02;100.00;98701.64;213995;1310;25345;-76
2023/01/07 21:37:48;;;;;;;221.50;87.00;;;;;;;3.09;100.00;98697.27;214225;1310;22491;-76
2023/01/07 21:42:50;;;;;;;246.10;90.20;;;;;;;3.11;100.00;98693.31;214070;1310;25378;-74
2023/01/07 21:47:52;;;;;;;228.10;85.60;;;;;;;3.09;100.00;98692.17;214114;1310;22531;-75
2023/01/07 21:52:54;;;;;;;193.30;75.20;;;;;;;3.07;100.00;98691.34;214018;1310;22509;-76
2023/01/07 21:57:56;;;;;;;255.20;96.80;;;;;;;3.10;100.00;98687.21;213923;1310;22472;-75
2023/01/07 22:02:57;;;;;;;236.40;93.20;;;;;;;3.14;100.00;98687.42;214108;1310;22489;-74
2023/01/07 22:07:59;;;;;;;261.10;100.80;;;;;;;3.11;100.00;98680.56;214339;1310;22508;-75
2023/01/07 22:13:06;;;;;;;243.80;95.80;;;;;;;3.06;100.00;98674.04;214134;1310;22522;-75
2023/01/07 22:18:08;;;;;;;256.30;98.50;;;;;;;3.07;100.00;98673.20;214259;1310;22574;-74
2023/01/07 22:23:15;;;;;;;252.40;93.40;;;;;;;3.10;100.00;98674.92;214052;1310;22501;-75
2023/01/07 22:28:20;;;;;;;245.10;96.80;;;;;;;3.14;100.00;98664.08;213833;1310;22473;-75
2023/01/07 22:33:22;;;;;;;231.80;91.20;;;;;;;3.18;100.00;98660.64;213992;1310;22506;-75
2023/01/07 22:38:26;;;;;;;279.40;104.00;;;;;;;3.18;100.00;98659.48;213856;1310;22583;-76
2023/01/07 22:43:28;;;;;;;234.60;91.80;;;;;;;3.19;100.00;98656.38;213951;1310;22503;-75
2023/01/07 22:48:35;;;;;;;252.80;97.30;;;;;;;3.21;100.00;98646.35;214236;1310;22593;-76
2023/01/07 22:53:37;;;;;;;192.20;76.80;;;;;;;3.25;100.00;98639.57;214106;1310;25414;-76
2023/01/07 22:58:39;;;;;;;216.10;87.50;;;;;;;3.31;100.00;98632.13;214114;1300;22597;-76
2023/01/07 23:03:42;;;;;;;181.20;76.40;;;;;;;3.36;100.00;98625.95;213953;1310;22915;-77
2023/01/07 23:08:44;;;;;;;240.20;94.10;;;;;;;3.42;100.00;98621.42;214043;1310;24308;-76
2023/01/07 23:13:46;;;;;;;200.80;82.30;;;;;;;3.48;100.00;98620.27;214036;1310;22582;-75
2023/01/07 23:18:47;;;;;;;152.90;63.90;;;;;;;3.53;100.00;98611.92;214203;1310;22476;-75
2023/01/07 23:23:49;;;;;;;209.50;82.50;;;;;;;3.61;100.00;98607.88;214100;1310;23604;-75
2023/01/07 23:28:51;;;;;;;198.80;77.00;;;;;;;3.66;100.00;98606.20;213745;1310;24330;-73